sensor_id;sensor_type;location;lat;lon;timestamp;pressure;altitude;pressure_sealevel;temperature;humidity
28354;BME280;15603;50.878;8.036;2023-03-20T00:01:24;145721.22;;;10.39;100.00
28354;BME280;15603;50.878;8.036;2023-03-20T00:03:52;145689.56;;;10.26;100.00
28354;BME280;15603;50.878;8.036;2023-03-20T00:06:24;145726.09;;;10.41;100.00
28354;BME280;15603;50.878;8.036;2023-03-20T00:08:53;145700.53;;;10.31;100.00
28354;BME280;15603;50.878;8.036;2023-03-20T00:16:31;145633.66;;;10.02;100.00
28354;BME280;15603;50.878;8.036;2023-03-20T00:18:59;145710.25;;;10.35;100.00
28354;BME280;15603;50.878;8.036;2023-03-20T00:21:26;145741.84;;;10.48;100.00
28354;BME280;15603;50.878;8.036;2023-03-20T00:23:54;145738.19;;;10.47;100.00
28354;BME280;15603;50.878;8.036;2023-03-20T00:26:25;145749.16;;;10.51;100.00
28354;BME280;15603;50.878;8.036;2023-03-20T00:28:53;145733.34;;;10.45;100.00
28354;BME280;15603;50.878;8.036;2023-03-20T00:31:30;145726.09;;;10.41;100.00
28354;BME280;15603;50.878;8.036;2023-03-20T00:34:00;145726.09;;;10.41;100.00
28354;BME280;15603;50.878;8.036;2023-03-20T00:36:28;145745.50;;;10.50;100.00
28354;BME280;15603;50.878;8.036;2023-03-20T00:38:55;145743.06;;;10.49;100.00
28354;BME280;15603;50.878;8.036;2023-03-20T00:41:24;145728.50;;;10.43;100.00
28354;BME280;15603;50.878;8.036;2023-03-20T00:43:57;145724.84;;;10.41;100.00
28354;BME280;15603;50.878;8.036;2023-03-20T00:46:25;145701.75;;;10.31;100.00
28354;BME280;15603;50.878;8.036;2023-03-20T00:48:53;145715.13;;;10.37;100.00
28354;BME280;15603;50.878;8.036;2023-03-20T00:51:21;145703.00;;;10.32;100.00
28354;BME280;15603;50.878;8.036;2023-03-20T00:53:50;145723.63;;;10.40;100.00
28354;BME280;15603;50.878;8.036;2023-03-20T00:56:30;145662.84;;;10.15;100.00
28354;BME280;15603;50.878;8.036;2023-03-20T00:58:59;145716.38;;;10.37;100.00
28354;BME280;15603;50.878;8.036;2023-03-20T01:01:28;145701.75;;;10.31;100.00
28354;BME280;15603;50.878;8.036;2023-03-20T01:03:57;145701.75;;;10.31;100.00
28354;BME280;15603;50.878;8.036;2023-03-20T01:06:24;145693.22;;;10.28;100.00
28354;BME280;15603;50.878;8.036;2023-03-20T01:08:51;145710.25;;;10.35;100.00
28354;BME280;15603;50.878;8.036;2023-03-20T01:11:21;145712.72;;;10.36;100.00
28354;BME280;15603;50.878;8.036;2023-03-20T01:13:49;145689.56;;;10.26;100.00
28354;BME280;15603;50.878;8.036;2023-03-20T01:16:20;145719.97;;;10.39;100.00
28354;BME280;15603;50.878;8.036;2023-03-20T01:18:49;145653.13;;;10.11;100.00
28354;BME280;15603;50.878;8.036;2023-03-20T01:21:17;145746.72;;;10.50;100.00
28354;BME280;15603;50.878;8.036;2023-03-20T01:23:46;145694.44;;;10.28;100.00
28354;BME280;15603;50.878;8.036;2023-03-20T01:26:33;145675.00;;;10.20;100.00
28354;BME280;15603;50.878;8.036;2023-03-20T01:29:03;145705.41;;;10.33;100.00
28354;BME280;15603;50.878;8.036;2023-03-20T01:31:32;145716.38;;;10.37;100.00
28354;BME280;15603;50.878;8.036;2023-03-20T01:33:59;145675.00;;;10.20;100.00
28354;BME280;15603;50.878;8.036;2023-03-20T01:36:26;145684.72;;;10.24;100.00
28354;BME280;15603;50.878;8.036;2023-03-20T01:38:55;145691.97;;;10.27;100.00
28354;BME280;15603;50.878;8.036;2023-03-20T01:41:25;145696.84;;;10.29;100.00
28354;BME280;15603;50.878;8.036;2023-03-20T01:43:53;145698.09;;;10.30;100.00
28354;BME280;15603;50.878;8.036;2023-03-20T01:46:29;145682.25;;;10.23;100.00
28354;BME280;15603;50.878;8.036;2023-03-20T01:51:48;145670.09;;;10.18;100.00
28354;BME280;15603;50.878;8.036;2023-03-20T01:54:32;145650.66;;;10.10;100.00
28354;BME280;15603;50.878;8.036;2023-03-20T01:57:12;145655.53;;;10.12;100.00
28354;BME280;15603;50.878;8.036;2023-03-20T01:59:45;145611.81;;;9.93;100.00
28354;BME280;15603;50.878;8.036;2023-03-20T02:02:17;145614.22;;;9.94;100.00
28354;BME280;15603;50.878;8.036;2023-03-20T02:04:47;145577.78;;;9.79;100.00
28354;BME280;15603;50.878;8.036;2023-03-20T02:07:17;145594.78;;;9.86;100.00
28354;BME280;15603;50.878;8.036;2023-03-20T02:09:56;145588.75;;;9.83;100.00
28354;BME280;15603;50.878;8.036;2023-03-20T02:12:35;145572.91;;;9.77;100.00
28354;BME280;15603;50.878;8.036;2023-03-20T02:15:05;145531.63;;;9.59;100.00
28354;BME280;15603;50.878;8.036;2023-03-20T02:17:53;145511.00;;;9.51;100.00
28354;BME280;15603;50.878;8.036;2023-03-20T02:20:35;145495.19;;;9.44;100.00
28354;BME280;15603;50.878;8.036;2023-03-20T02:40:26;145345.84;;;8.81;100.00
28354;BME280;15603;50.878;8.036;2023-03-20T02:45:34;145291.22;;;8.58;100.00
28354;BME280;15603;50.878;8.036;2023-03-20T02:51:16;145279.09;;;8.53;100.00
28354;BME280;15603;50.878;8.036;2023-03-20T02:56:36;145214.69;;;8.25;100.00
28354;BME280;15603;50.878;8.036;2023-03-20T03:01:40;145276.66;;;8.52;100.00
28354;BME280;15603;50.878;8.036;2023-03-20T03:04:13;145269.34;;;8.49;100.00
28354;BME280;15603;50.878;8.036;2023-03-20T03:06:43;145237.81;;;8.35;100.00
28354;BME280;15603;50.878;8.036;2023-03-20T03:09:27;145249.91;;;8.40;100.00
28354;BME280;15603;50.878;8.036;2023-03-20T03:12:06;145293.66;;;8.59;100.00
28354;BME280;15603;50.878;8.036;2023-03-20T03:14:39;145275.44;;;8.51;100.00
28354;BME280;15603;50.878;8.036;2023-03-20T03:17:14;145237.81;;;8.35;100.00
28354;BME280;15603;50.878;8.036;2023-03-20T03:19:46;145220.78;;;8.28;100.00
28354;BME280;15603;50.878;8.036;2023-03-20T03:22:15;145279.09;;;8.53;100.00
28354;BME280;15603;50.878;8.036;2023-03-20T03:24:45;145288.81;;;8.57;100.00
28354;BME280;15603;50.878;8.036;2023-03-20T03:27:30;145286.34;;;8.56;100.00
28354;BME280;15603;50.878;8.036;2023-03-20T03:30:02;145200.16;;;8.19;100.00
28354;BME280;15603;50.878;8.036;2023-03-20T03:32:33;145273.00;;;8.50;100.00
28354;BME280;15603;50.878;8.036;2023-03-20T03:35:03;145274.25;;;8.51;100.00
28354;BME280;15603;50.878;8.036;2023-03-20T03:40:44;145248.69;;;8.40;100.00
28354;BME280;15603;50.878;8.036;2023-03-20T03:43:18;145236.56;;;8.35;100.00
28354;BME280;15603;50.878;8.036;2023-03-20T03:46:05;145235.34;;;8.34;100.00
28354;BME280;15603;50.878;8.036;2023-03-20T03:48:55;145237.81;;;8.35;100.00
28354;BME280;15603;50.878;8.036;2023-03-20T03:51:28;145237.81;;;8.35;100.00
28354;BME280;15603;50.878;8.036;2023-03-20T03:54:10;145259.66;;;8.44;100.00
28354;BME280;15603;50.878;8.036;2023-03-20T03:56:42;145223.19;;;8.29;100.00
28354;BME280;15603;50.878;8.036;2023-03-20T03:59:19;145232.91;;;8.33;100.00
28354;BME280;15603;50.878;8.036;2023-03-20T04:01:49;145249.91;;;8.40;100.00
28354;BME280;15603;50.878;8.036;2023-03-20T04:04:19;145230.50;;;8.32;100.00
28354;BME280;15603;50.878;8.036;2023-03-20T04:06:48;145138.31;;;7.93;100.00
28354;BME280;15603;50.878;8.036;2023-03-20T04:09:15;145235.34;;;8.34;100.00
28354;BME280;15603;50.878;8.036;2023-03-20T04:11:42;145203.78;;;8.21;100.00
28354;BME280;15603;50.878;8.036;2023-03-20T04:14:12;145232.91;;;8.33;100.00
28354;BME280;15603;50.878;8.036;2023-03-20T04:16:40;145213.50;;;8.25;100.00
28354;BME280;15603;50.878;8.036;2023-03-20T04:19:08;145179.53;;;8.11;100.00
28354;BME280;15603;50.878;8.036;2023-03-20T04:21:35;145240.19;;;8.36;100.00
28354;BME280;15603;50.878;8.036;2023-03-20T04:24:02;145234.16;;;8.34;100.00
28354;BME280;15603;50.878;8.036;2023-03-20T04:26:30;145224.44;;;8.30;100.00
28354;BME280;15603;50.878;8.036;2023-03-20T04:28:57;145242.66;;;8.37;100.00
28354;BME280;15603;50.878;8.036;2023-03-20T04:31:51;145232.91;;;8.33;100.00
28354;BME280;15603;50.878;8.036;2023-03-20T04:34:32;145218.34;;;8.27;100.00
28354;BME280;15603;50.878;8.036;2023-03-20T04:37:20;145191.66;;;8.16;100.00
28354;BME280;15603;50.878;8.036;2023-03-20T04:39:55;145189.25;;;8.15;100.00
28354;BME280;15603;50.878;8.036;2023-03-20T04:42:22;145235.34;;;8.34;100.00
28354;BME280;15603;50.878;8.036;2023-03-20T04:44:54;145220.78;;;8.28;100.00
28354;BME280;15603;50.878;8.036;2023-03-20T04:47:22;145207.44;;;8.22;100.00
28354;BME280;15603;50.878;8.036;2023-03-20T04:49:50;145228.06;;;8.31;100.00
28354;BME280;15603;50.878;8.036;2023-03-20T04:52:18;145203.78;;;8.21;100.00
28354;BME280;15603;50.878;8.036;2023-03-20T04:54:45;145206.25;;;8.22;100.00
28354;BME280;15603;50.878;8.036;2023-03-20T04:57:12;145208.66;;;8.23;100.00
28354;BME280;15603;50.878;8.036;2023-03-20T04:59:39;145180.75;;;8.11;100.00
28354;BME280;15603;50.878;8.036;2023-03-20T05:02:06;145203.78;;;8.21;100.00
28354;BME280;15603;50.878;8.036;2023-03-20T05:04:33;145215.94;;;8.26;100.00
28354;BME280;15603;50.878;8.036;2023-03-20T05:07:01;145188.03;;;8.14;100.00
28354;BME280;15603;50.878;8.036;2023-03-20T05:09:37;145152.84;;;7.99;100.00
28354;BME280;15603;50.878;8.036;2023-03-20T05:12:05;145247.50;;;8.39;100.00
28354;BME280;15603;50.878;8.036;2023-03-20T05:14:56;145235.34;;;8.34;100.00
28354;BME280;15603;50.878;8.036;2023-03-20T05:17:32;145205.00;;;8.21;100.00
28354;BME280;15603;50.878;8.036;2023-03-20T05:20:28;145223.19;;;8.29;100.00
28354;BME280;15603;50.878;8.036;2023-03-20T05:23:21;145234.16;;;8.34;100.00
28354;BME280;15603;50.878;8.036;2023-03-20T05:25:54;145230.50;;;8.32;100.00
28354;BME280;15603;50.878;8.036;2023-03-20T05:28:36;145201.41;;;8.20;100.00
28354;BME280;15603;50.878;8.036;2023-03-20T05:31:12;145215.94;;;8.26;100.00
28354;BME280;15603;50.878;8.036;2023-03-20T05:34:09;145206.25;;;8.22;100.00
28354;BME280;15603;50.878;8.036;2023-03-20T05:36:42;145188.03;;;8.14;100.00
28354;BME280;15603;50.878;8.036;2023-03-20T05:39:25;145144.34;;;7.96;100.00
28354;BME280;15603;50.878;8.036;2023-03-20T05:42:11;145200.16;;;8.19;100.00
28354;BME280;15603;50.878;8.036;2023-03-20T05:44:57;145160.09;;;8.02;100.00
28354;BME280;15603;50.878;8.036;2023-03-20T05:47:44;145208.66;;;8.23;100.00
28354;BME280;15603;50.878;8.036;2023-03-20T05:50:41;145177.09;;;8.10;100.00
28354;BME280;15603;50.878;8.036;2023-03-20T05:53:35;145198.94;;;8.19;100.00
28354;BME280;15603;50.878;8.036;2023-03-20T05:56:21;145229.28;;;8.32;100.00
28354;BME280;15603;50.878;8.036;2023-03-20T05:59:10;145217.16;;;8.26;100.00
28354;BME280;15603;50.878;8.036;2023-03-20T06:01:58;145215.94;;;8.26;100.00
28354;BME280;15603;50.878;8.036;2023-03-20T06:04:29;145209.84;;;8.23;100.00
28354;BME280;15603;50.878;8.036;2023-03-20T06:07:15;145237.81;;;8.35;100.00
28354;BME280;15603;50.878;8.036;2023-03-20T06:09:47;145228.06;;;8.31;100.00
28354;BME280;15603;50.878;8.036;2023-03-20T06:12:15;145225.66;;;8.30;100.00
28354;BME280;15603;50.878;8.036;2023-03-20T06:14:43;145185.59;;;8.13;100.00
28354;BME280;15603;50.878;8.036;2023-03-20T06:17:11;145259.66;;;8.44;100.00
28354;BME280;15603;50.878;8.036;2023-03-20T06:19:38;145293.66;;;8.59;100.00
28354;BME280;15603;50.878;8.036;2023-03-20T06:22:05;145281.50;;;8.54;100.00
28354;BME280;15603;50.878;8.036;2023-03-20T06:24:32;145265.75;;;8.47;100.00
28354;BME280;15603;50.878;8.036;2023-03-20T06:27:00;145290.00;;;8.57;100.00
28354;BME280;15603;50.878;8.036;2023-03-20T06:29:28;145225.66;;;8.30;100.00
28354;BME280;15603;50.878;8.036;2023-03-20T06:32:07;145242.66;;;8.37;100.00
28354;BME280;15603;50.878;8.036;2023-03-20T06:34:35;145223.19;;;8.29;100.00
28354;BME280;15603;50.878;8.036;2023-03-20T06:37:03;145249.91;;;8.40;100.00
28354;BME280;15603;50.878;8.036;2023-03-20T06:39:30;145291.22;;;8.58;100.00
28354;BME280;15603;50.878;8.036;2023-03-20T06:41:57;145279.09;;;8.53;100.00
28354;BME280;15603;50.878;8.036;2023-03-20T06:44:25;145305.78;;;8.64;100.00
28354;BME280;15603;50.878;8.036;2023-03-20T06:47:09;145236.56;;;8.35;100.00
28354;BME280;15603;50.878;8.036;2023-03-20T06:49:36;145232.91;;;8.33;100.00
28354;BME280;15603;50.878;8.036;2023-03-20T06:52:04;145266.94;;;8.48;100.00
28354;BME280;15603;50.878;8.036;2023-03-20T06:54:32;145288.81;;;8.57;100.00
28354;BME280;15603;50.878;8.036;2023-03-20T06:56:59;145291.22;;;8.58;100.00
28354;BME280;15603;50.878;8.036;2023-03-20T06:59:26;145321.56;;;8.71;100.00
28354;BME280;15603;50.878;8.036;2023-03-20T07:01:56;145290.00;;;8.57;100.00
28354;BME280;15603;50.878;8.036;2023-03-20T07:04:24;145263.31;;;8.46;100.00
28354;BME280;15603;50.878;8.036;2023-03-20T07:06:55;145256.03;;;8.43;100.00
28354;BME280;15603;50.878;8.036;2023-03-20T07:09:22;145279.09;;;8.53;100.00
28354;BME280;15603;50.878;8.036;2023-03-20T07:11:50;145274.25;;;8.51;100.00
28354;BME280;15603;50.878;8.036;2023-03-20T07:14:17;145269.34;;;8.49;100.00
28354;BME280;15603;50.878;8.036;2023-03-20T07:16:49;145266.94;;;8.48;100.00
28354;BME280;15603;50.878;8.036;2023-03-20T07:19:18;145220.78;;;8.28;100.00
28354;BME280;15603;50.878;8.036;2023-03-20T07:21:49;145328.88;;;8.74;100.00
28354;BME280;15603;50.878;8.036;2023-03-20T07:24:18;145327.63;;;8.73;100.00
28354;BME280;15603;50.878;8.036;2023-03-20T07:26:45;145303.38;;;8.63;100.00
28354;BME280;15603;50.878;8.036;2023-03-20T07:29:13;145372.53;;;8.92;100.00
28354;BME280;15603;50.878;8.036;2023-03-20T07:31:41;145390.75;;;9.00;100.00
28354;BME280;15603;50.878;8.036;2023-03-20T07:34:12;145373.75;;;8.93;100.00
28354;BME280;15603;50.878;8.036;2023-03-20T07:36:40;145349.47;;;8.82;100.00
28354;BME280;15603;50.878;8.036;2023-03-20T07:39:09;145305.78;;;8.64;100.00
28354;BME280;15603;50.878;8.036;2023-03-20T07:41:38;145359.19;;;8.87;100.00
28354;BME280;15603;50.878;8.036;2023-03-20T07:44:08;145384.69;;;8.97;100.00
28354;BME280;15603;50.878;8.036;2023-03-20T07:46:45;145385.91;;;8.98;100.00
28354;BME280;15603;50.878;8.036;2023-03-20T07:49:15;145383.50;;;8.97;100.00
28354;BME280;15603;50.878;8.036;2023-03-20T07:51:47;145366.50;;;8.90;100.00
28354;BME280;15603;50.878;8.036;2023-03-20T07:54:15;145327.63;;;8.73;100.00
28354;BME280;15603;50.878;8.036;2023-03-20T07:56:42;145315.50;;;8.68;100.00
28354;BME280;15603;50.878;8.036;2023-03-20T07:59:09;145334.94;;;8.76;100.00
28354;BME280;15603;50.878;8.036;2023-03-20T08:01:37;145326.41;;;8.73;100.00
28354;BME280;15603;50.878;8.036;2023-03-20T08:04:04;145322.78;;;8.71;100.00
28354;BME280;15603;50.878;8.036;2023-03-20T08:06:31;145354.34;;;8.84;100.00
28354;BME280;15603;50.878;8.036;2023-03-20T08:08:59;145347.09;;;8.81;100.00
28354;BME280;15603;50.878;8.036;2023-03-20T08:11:26;145365.28;;;8.89;100.00
28354;BME280;15603;50.878;8.036;2023-03-20T08:13:53;145368.91;;;8.91;100.00
28354;BME280;15603;50.878;8.036;2023-03-20T08:16:20;145354.34;;;8.84;100.00
28354;BME280;15603;50.878;8.036;2023-03-20T08:18:47;145376.19;;;8.94;100.00
28354;BME280;15603;50.878;8.036;2023-03-20T08:21:16;145408.97;;;9.08;100.00
28354;BME280;15603;50.878;8.036;2023-03-20T08:23:43;145434.47;;;9.18;100.00
28354;BME280;15603;50.878;8.036;2023-03-20T08:26:10;145406.56;;;9.07;100.00
28354;BME280;15603;50.878;8.036;2023-03-20T08:28:38;145412.63;;;9.09;100.00
28354;BME280;15603;50.878;8.036;2023-03-20T08:31:14;145483.03;;;9.39;100.00
28354;BME280;15603;50.878;8.036;2023-03-20T08:33:44;145559.56;;;9.71;100.00
28354;BME280;15603;50.878;8.036;2023-03-20T08:36:11;145483.03;;;9.39;99.69
28354;BME280;15603;50.878;8.036;2023-03-20T08:38:41;145495.19;;;9.44;100.00
28354;BME280;15603;50.878;8.036;2023-03-20T08:41:08;145502.50;;;9.47;99.73
28354;BME280;15603;50.878;8.036;2023-03-20T08:43:35;145461.22;;;9.30;100.00
28354;BME280;15603;50.878;8.036;2023-03-20T08:46:03;145395.63;;;9.02;99.50
28354;BME280;15603;50.878;8.036;2023-03-20T08:48:30;145351.94;;;8.83;100.00
28354;BME280;15603;50.878;8.036;2023-03-20T08:50:57;145331.28;;;8.75;100.00
28354;BME280;15603;50.878;8.036;2023-03-20T08:53:24;145281.50;;;8.54;100.00
28354;BME280;15603;50.878;8.036;2023-03-20T08:55:52;145314.25;;;8.68;100.00
28354;BME280;15603;50.878;8.036;2023-03-20T08:58:20;145390.75;;;9.00;100.00
28354;BME280;15603;50.878;8.036;2023-03-20T09:00:48;145412.63;;;9.09;100.00
28354;BME280;15603;50.878;8.036;2023-03-20T09:03:17;145400.47;;;9.04;100.00
28354;BME280;15603;50.878;8.036;2023-03-20T09:05:46;145389.56;;;8.99;100.00
28354;BME280;15603;50.878;8.036;2023-03-20T09:08:14;145347.09;;;8.81;100.00
28354;BME280;15603;50.878;8.036;2023-03-20T09:10:41;145483.03;;;9.39;100.00
28354;BME280;15603;50.878;8.036;2023-03-20T09:13:08;145501.25;;;9.47;99.48
28354;BME280;15603;50.878;8.036;2023-03-20T09:15:54;145421.13;;;9.13;99.80
28354;BME280;15603;50.878;8.036;2023-03-20T09:18:22;145458.75;;;9.29;97.82
28354;BME280;15603;50.878;8.036;2023-03-20T09:20:49;145500.03;;;9.46;97.88
28354;BME280;15603;50.878;8.036;2023-03-20T09:23:17;145418.69;;;9.12;96.56
28354;BME280;15603;50.878;8.036;2023-03-20T09:25:45;145473.31;;;9.35;99.47
28354;BME280;15603;50.878;8.036;2023-03-20T09:28:13;145513.41;;;9.52;97.95
28354;BME280;15603;50.878;8.036;2023-03-20T09:30:41;145463.63;;;9.31;97.69
28354;BME280;15603;50.878;8.036;2023-03-20T09:33:09;145498.84;;;9.46;95.74
28354;BME280;15603;50.878;8.036;2023-03-20T09:35:37;145502.50;;;9.47;97.40
28354;BME280;15603;50.878;8.036;2023-03-20T09:38:04;145487.88;;;9.41;96.88
28354;BME280;15603;50.878;8.036;2023-03-20T09:46:13;145546.19;;;9.66;93.09
28354;BME280;15603;50.878;8.036;2023-03-20T09:51:52;145650.66;;;10.10;90.90
28354;BME280;15603;50.878;8.036;2023-03-20T09:56:51;145771.06;;;10.60;88.98
28354;BME280;15603;50.878;8.036;2023-03-20T09:59:20;145735.78;;;10.46;86.85
28354;BME280;15603;50.878;8.036;2023-03-20T10:01:52;145565.66;;;9.74;88.12
28354;BME280;15603;50.878;8.036;2023-03-20T10:04:22;145655.53;;;10.12;87.48
28354;BME280;15603;50.878;8.036;2023-03-20T10:06:52;145755.22;;;10.54;90.99
28354;BME280;15603;50.878;8.036;2023-03-20T10:09:22;145828.16;;;10.85;86.05
28354;BME280;15603;50.878;8.036;2023-03-20T10:17:20;145948.50;;;11.35;84.30
28354;BME280;15603;50.878;8.036;2023-03-20T10:19:54;145960.69;;;11.40;81.83
28354;BME280;15603;50.878;8.036;2023-03-20T10:22:31;145944.91;;;11.34;81.75
28354;BME280;15603;50.878;8.036;2023-03-20T10:25:15;145933.94;;;11.29;78.23
28354;BME280;15603;50.878;8.036;2023-03-20T10:27:58;145929.06;;;11.27;77.25
28354;BME280;15603;50.878;8.036;2023-03-20T10:33:13;145959.50;;;11.40;75.43
28354;BME280;15603;50.878;8.036;2023-03-20T10:35:52;145923.00;;;11.25;74.55
28354;BME280;15603;50.878;8.036;2023-03-20T10:41:15;146027.59;;;11.69;76.63
28354;BME280;15603;50.878;8.036;2023-03-20T10:43:44;145986.25;;;11.51;74.06
28354;BME280;15603;50.878;8.036;2023-03-20T10:46:25;145952.19;;;11.37;75.01
28354;BME280;15603;50.878;8.036;2023-03-20T10:48:57;146115.22;;;12.06;75.16
28354;BME280;15603;50.878;8.036;2023-03-20T10:52:02;146070.16;;;11.87;75.45
28354;BME280;15603;50.878;8.036;2023-03-20T10:54:33;146174.84;;;12.31;73.29
28354;BME280;15603;50.878;8.036;2023-03-20T10:57:03;146195.56;;;12.40;72.74
28354;BME280;15603;50.878;8.036;2023-03-20T10:59:36;146201.63;;;12.42;69.01
28354;BME280;15603;50.878;8.036;2023-03-20T11:02:12;146060.44;;;11.83;67.91
28354;BME280;15603;50.878;8.036;2023-03-20T11:04:39;146173.66;;;12.30;70.86
28354;BME280;15603;50.878;8.036;2023-03-20T11:07:26;146218.69;;;12.49;67.54
28354;BME280;15603;50.878;8.036;2023-03-20T11:12:36;146106.72;;;12.02;69.09
28354;BME280;15603;50.878;8.036;2023-03-20T11:15:24;146071.38;;;11.87;65.44
28354;BME280;15603;50.878;8.036;2023-03-20T11:17:54;145992.31;;;11.54;66.81
28354;BME280;15603;50.878;8.036;2023-03-20T11:20:22;146081.19;;;11.91;68.07
28354;BME280;15603;50.878;8.036;2023-03-20T11:22:50;146017.88;;;11.65;64.31
28354;BME280;15603;50.878;8.036;2023-03-20T11:25:37;145968.00;;;11.44;65.13
28354;BME280;15603;50.878;8.036;2023-03-20T11:28:19;146061.63;;;11.83;66.05
28354;BME280;15603;50.878;8.036;2023-03-20T11:30:48;146003.25;;;11.58;67.46
28354;BME280;15603;50.878;8.036;2023-03-20T11:33:33;146056.78;;;11.81;65.87
28354;BME280;15603;50.878;8.036;2023-03-20T11:36:10;146051.91;;;11.79;63.98
28354;BME280;15603;50.878;8.036;2023-03-20T11:38:44;145937.59;;;11.31;64.21
28354;BME280;15603;50.878;8.036;2023-03-20T11:41:27;145723.63;;;10.40;66.39
28354;BME280;15603;50.878;8.036;2023-03-20T11:43:54;145769.81;;;10.60;67.56
28354;BME280;15603;50.878;8.036;2023-03-20T11:46:22;145786.84;;;10.67;68.62
28354;BME280;15603;50.878;8.036;2023-03-20T11:49:18;145757.69;;;10.55;68.29
28354;BME280;15603;50.878;8.036;2023-03-20T11:51:46;145857.31;;;10.97;69.70
28354;BME280;15603;50.878;8.036;2023-03-20T11:54:20;145893.78;;;11.12;71.13
28354;BME280;15603;50.878;8.036;2023-03-20T11:56:54;145958.28;;;11.39;69.37
28354;BME280;15603;50.878;8.036;2023-03-20T11:59:25;146016.63;;;11.64;66.98
28354;BME280;15603;50.878;8.036;2023-03-20T12:01:54;146000.84;;;11.57;66.83
28354;BME280;15603;50.878;8.036;2023-03-20T12:04:35;146083.59;;;11.92;67.84
28354;BME280;15603;50.878;8.036;2023-03-20T12:07:21;146115.22;;;12.06;65.86
28354;BME280;15603;50.878;8.036;2023-03-20T12:09:59;146016.63;;;11.64;61.45
28354;BME280;15603;50.878;8.036;2023-03-20T12:12:39;145952.19;;;11.37;62.43
28354;BME280;15603;50.878;8.036;2023-03-20T12:20:23;145813.59;;;10.78;67.86
28354;BME280;15603;50.878;8.036;2023-03-20T12:23:01;145863.44;;;10.99;66.13
28354;BME280;15603;50.878;8.036;2023-03-20T12:25:50;145998.38;;;11.56;65.56
28354;BME280;15603;50.878;8.036;2023-03-20T12:28:38;146006.91;;;11.60;66.00
28354;BME280;15603;50.878;8.036;2023-03-20T12:36:24;146013.03;;;11.63;62.39
28354;BME280;15603;50.878;8.036;2023-03-20T12:38:54;146005.69;;;11.59;63.45
28354;BME280;15603;50.878;8.036;2023-03-20T12:41:28;146041.00;;;11.74;64.65
28354;BME280;15603;50.878;8.036;2023-03-20T12:44:05;146053.13;;;11.79;65.20
28354;BME280;15603;50.878;8.036;2023-03-20T12:46:44;145937.59;;;11.31;70.14
28354;BME280;15603;50.878;8.036;2023-03-20T12:52:01;146083.59;;;11.92;64.95
28354;BME280;15603;50.878;8.036;2023-03-20T12:57:20;146095.78;;;11.97;69.65
28354;BME280;15603;50.878;8.036;2023-03-20T13:00:00;145879.22;;;11.06;67.37
28354;BME280;15603;50.878;8.036;2023-03-20T13:10:57;145980.13;;;11.49;73.63
28354;BME280;15603;50.878;8.036;2023-03-20T13:13:35;145950.97;;;11.36;70.93
28354;BME280;15603;50.878;8.036;2023-03-20T13:16:44;145824.50;;;10.83;71.55
28354;BME280;15603;50.878;8.036;2023-03-20T13:19:24;145716.38;;;10.37;72.54
28354;BME280;15603;50.878;8.036;2023-03-20T13:21:58;145638.56;;;10.05;76.84
28354;BME280;15603;50.878;8.036;2023-03-20T13:27:05;145660.38;;;10.14;78.54
28354;BME280;15603;50.878;8.036;2023-03-20T13:34:51;145813.59;;;10.78;75.36
28354;BME280;15603;50.878;8.036;2023-03-20T13:37:28;145836.69;;;10.88;75.29
28354;BME280;15603;50.878;8.036;2023-03-20T13:40:27;145818.44;;;10.80;73.58
28354;BME280;15603;50.878;8.036;2023-03-20T13:43:02;145747.97;;;10.51;75.72
28354;BME280;15603;50.878;8.036;2023-03-20T13:45:39;145762.53;;;10.57;76.18
28354;BME280;15603;50.878;8.036;2023-03-20T13:48:20;145746.72;;;10.50;77.12
28354;BME280;15603;50.878;8.036;2023-03-20T13:56:40;145800.22;;;10.73;77.66
28354;BME280;15603;50.878;8.036;2023-03-20T14:05:04;145823.31;;;10.83;85.93
28354;BME280;15603;50.878;8.036;2023-03-20T14:07:38;145721.22;;;10.39;79.39
28354;BME280;15603;50.878;8.036;2023-03-20T14:12:55;145648.28;;;10.09;83.88
28354;BME280;15603;50.878;8.036;2023-03-20T14:15:27;145721.22;;;10.39;84.41
28354;BME280;15603;50.878;8.036;2023-03-20T14:18:03;145580.22;;;9.80;83.51
28354;BME280;15603;50.878;8.036;2023-03-20T14:20:34;145639.75;;;10.05;84.25
28354;BME280;15603;50.878;8.036;2023-03-20T14:23:04;145581.44;;;9.80;84.18
28354;BME280;15603;50.878;8.036;2023-03-20T14:25:35;145565.66;;;9.74;87.91
28354;BME280;15603;50.878;8.036;2023-03-20T14:28:23;145604.50;;;9.90;91.12
28354;BME280;15603;50.878;8.036;2023-03-20T14:31:11;145660.38;;;10.14;86.29
28354;BME280;15603;50.878;8.036;2023-03-20T14:33:42;145599.66;;;9.88;83.63
28354;BME280;15603;50.878;8.036;2023-03-20T14:36:17;145636.09;;;10.03;80.94
28354;BME280;15603;50.878;8.036;2023-03-20T14:42:01;145653.13;;;10.11;87.02
28354;BME280;15603;50.878;8.036;2023-03-20T14:44:46;145621.53;;;9.97;83.08
28354;BME280;15603;50.878;8.036;2023-03-20T14:48:05;145578.97;;;9.79;84.29
28354;BME280;15603;50.878;8.036;2023-03-20T14:50:22;145538.94;;;9.62;85.04
28354;BME280;15603;50.878;8.036;2023-03-20T14:55:32;145497.63;;;9.45;87.97
28354;BME280;15603;50.878;8.036;2023-03-20T14:58:31;145468.47;;;9.33;87.54
28354;BME280;15603;50.878;8.036;2023-03-20T15:00:51;145447.84;;;9.24;89.17
28354;BME280;15603;50.878;8.036;2023-03-20T15:03:18;145467.25;;;9.32;89.02
28354;BME280;15603;50.878;8.036;2023-03-20T15:05:45;145526.78;;;9.57;88.79
28354;BME280;15603;50.878;8.036;2023-03-20T15:08:21;145497.63;;;9.45;84.84
28354;BME280;15603;50.878;8.036;2023-03-20T15:10:52;145439.34;;;9.20;87.63
28354;BME280;15603;50.878;8.036;2023-03-20T15:13:21;145485.47;;;9.40;86.87
28354;BME280;15603;50.878;8.036;2023-03-20T15:15:59;145486.69;;;9.40;85.97
28354;BME280;15603;50.878;8.036;2023-03-20T15:18:39;145500.03;;;9.46;84.66